sensor_id;sensor_type;location;lat;lon;timestamp;P1;durP1;ratioP1;P2;durP2;ratioP2
56136;SDS011;42008;52.934;5.884;2024-01-25T00:01:14;64.67;;;10.47;;
56136;SDS011;42008;52.934;5.884;2024-01-25T00:03:40;54.90;;;8.63;;
56136;SDS011;42008;52.934;5.884;2024-01-25T00:06:06;62.03;;;8.90;;
56136;SDS011;42008;52.934;5.884;2024-01-25T00:08:33;52.33;;;8.77;;
56136;SDS011;42008;52.934;5.884;2024-01-25T00:11:03;51.70;;;8.10;;
56136;SDS011;42008;52.934;5.884;2024-01-25T00:13:30;53.60;;;9.33;;
56136;SDS011;42008;52.934;5.884;2024-01-25T00:15:56;61.77;;;8.43;;
56136;SDS011;42008;52.934;5.884;2024-01-25T00:18:22;53.57;;;8.27;;
56136;SDS011;42008;52.934;5.884;2024-01-25T00:20:48;51.97;;;9.27;;
56136;SDS011;42008;52.934;5.884;2024-01-25T00:23:14;56.13;;;8.37;;
56136;SDS011;42008;52.934;5.884;2024-01-25T00:25:40;54.57;;;8.57;;
56136;SDS011;42008;52.934;5.884;2024-01-25T00:28:06;53.37;;;8.73;;
56136;SDS011;42008;52.934;5.884;2024-01-25T00:30:32;63.83;;;8.60;;
56136;SDS011;42008;52.934;5.884;2024-01-25T00:32:58;55.97;;;8.83;;
56136;SDS011;42008;52.934;5.884;2024-01-25T00:35:25;65.63;;;9.33;;
56136;SDS011;42008;52.934;5.884;2024-01-25T00:37:52;63.57;;;9.53;;
56136;SDS011;42008;52.934;5.884;2024-01-25T00:40:18;56.83;;;9.80;;
56136;SDS011;42008;52.934;5.884;2024-01-25T00:42:44;54.23;;;8.97;;
56136;SDS011;42008;52.934;5.884;2024-01-25T00:45:17;60.47;;;8.40;;
56136;SDS011;42008;52.934;5.884;2024-01-25T00:47:44;50.33;;;10.03;;
56136;SDS011;42008;52.934;5.884;2024-01-25T00:50:10;64.87;;;9.83;;
56136;SDS011;42008;52.934;5.884;2024-01-25T00:52:36;68.10;;;10.50;;
56136;SDS011;42008;52.934;5.884;2024-01-25T00:55:02;61.53;;;9.17;;
56136;SDS011;42008;52.934;5.884;2024-01-25T00:57:28;61.90;;;10.03;;
56136;SDS011;42008;52.934;5.884;2024-01-25T00:59:55;59.40;;;9.70;;
56136;SDS011;42008;52.934;5.884;2024-01-25T01:02:21;57.03;;;8.63;;
56136;SDS011;42008;52.934;5.884;2024-01-25T01:04:47;55.60;;;8.63;;
56136;SDS011;42008;52.934;5.884;2024-01-25T01:07:14;59.77;;;8.87;;
56136;SDS011;42008;52.934;5.884;2024-01-25T01:09:40;50.37;;;8.43;;
56136;SDS011;42008;52.934;5.884;2024-01-25T01:12:06;79.70;;;9.70;;
56136;SDS011;42008;52.934;5.884;2024-01-25T01:14:33;62.60;;;8.97;;
56136;SDS011;42008;52.934;5.884;2024-01-25T01:16:59;50.03;;;8.80;;
56136;SDS011;42008;52.934;5.884;2024-01-25T01:19:25;54.60;;;9.47;;
56136;SDS011;42008;52.934;5.884;2024-01-25T01:21:51;64.07;;;9.63;;
56136;SDS011;42008;52.934;5.884;2024-01-25T01:24:17;67.87;;;10.10;;
56136;SDS011;42008;52.934;5.884;2024-01-25T01:26:43;57.07;;;8.83;;
56136;SDS011;42008;52.934;5.884;2024-01-25T01:29:09;56.90;;;9.10;;
56136;SDS011;42008;52.934;5.884;2024-01-25T01:31:35;62.90;;;9.67;;
56136;SDS011;42008;52.934;5.884;2024-01-25T01:34:01;65.53;;;9.80;;
56136;SDS011;42008;52.934;5.884;2024-01-25T01:36:27;59.00;;;9.53;;
56136;SDS011;42008;52.934;5.884;2024-01-25T01:38:54;46.30;;;9.07;;
56136;SDS011;42008;52.934;5.884;2024-01-25T01:41:20;53.63;;;7.90;;
56136;SDS011;42008;52.934;5.884;2024-01-25T01:43:46;72.53;;;11.43;;
56136;SDS011;42008;52.934;5.884;2024-01-25T01:46:16;69.17;;;9.27;;
56136;SDS011;42008;52.934;5.884;2024-01-25T01:48:46;63.97;;;8.87;;
56136;SDS011;42008;52.934;5.884;2024-01-25T01:51:12;67.97;;;8.97;;
56136;SDS011;42008;52.934;5.884;2024-01-25T01:53:38;70.63;;;10.77;;
56136;SDS011;42008;52.934;5.884;2024-01-25T01:56:05;62.03;;;8.27;;
56136;SDS011;42008;52.934;5.884;2024-01-25T01:58:32;61.87;;;9.13;;
56136;SDS011;42008;52.934;5.884;2024-01-25T02:00:59;63.50;;;8.93;;
56136;SDS011;42008;52.934;5.884;2024-01-25T02:03:25;61.53;;;9.90;;
56136;SDS011;42008;52.934;5.884;2024-01-25T02:05:51;56.77;;;8.70;;
56136;SDS011;42008;52.934;5.884;2024-01-25T02:08:17;58.40;;;8.37;;
56136;SDS011;42008;52.934;5.884;2024-01-25T02:10:43;67.17;;;8.83;;
56136;SDS011;42008;52.934;5.884;2024-01-25T02:13:09;56.83;;;8.53;;
56136;SDS011;42008;52.934;5.884;2024-01-25T02:15:35;64.30;;;10.70;;
56136;SDS011;42008;52.934;5.884;2024-01-25T02:18:01;56.37;;;8.83;;
56136;SDS011;42008;52.934;5.884;2024-01-25T02:20:28;58.17;;;9.97;;
56136;SDS011;42008;52.934;5.884;2024-01-25T02:22:54;70.73;;;9.40;;
56136;SDS011;42008;52.934;5.884;2024-01-25T02:25:20;58.30;;;8.57;;
56136;SDS011;42008;52.934;5.884;2024-01-25T02:27:46;62.67;;;9.20;;
56136;SDS011;42008;52.934;5.884;2024-01-25T02:30:12;54.87;;;8.90;;
56136;SDS011;42008;52.934;5.884;2024-01-25T02:32:38;55.70;;;8.10;;
56136;SDS011;42008;52.934;5.884;2024-01-25T02:35:04;69.03;;;10.90;;
56136;SDS011;42008;52.934;5.884;2024-01-25T02:37:30;54.53;;;8.90;;
56136;SDS011;42008;52.934;5.884;2024-01-25T02:39:56;70.00;;;9.60;;
56136;SDS011;42008;52.934;5.884;2024-01-25T02:42:22;63.43;;;9.50;;
56136;SDS011;42008;52.934;5.884;2024-01-25T02:44:48;55.73;;;8.93;;
56136;SDS011;42008;52.934;5.884;2024-01-25T02:47:14;58.20;;;8.33;;
56136;SDS011;42008;52.934;5.884;2024-01-25T02:49:40;64.07;;;10.90;;
56136;SDS011;42008;52.934;5.884;2024-01-25T02:52:06;59.10;;;9.53;;
56136;SDS011;42008;52.934;5.884;2024-01-25T02:54:35;75.70;;;10.07;;
56136;SDS011;42008;52.934;5.884;2024-01-25T02:57:02;66.80;;;10.17;;
56136;SDS011;42008;52.934;5.884;2024-01-25T02:59:28;68.33;;;9.40;;
56136;SDS011;42008;52.934;5.884;2024-01-25T03:01:54;71.07;;;9.30;;
56136;SDS011;42008;52.934;5.884;2024-01-25T03:04:20;68.67;;;9.37;;
56136;SDS011;42008;52.934;5.884;2024-01-25T03:06:46;64.30;;;9.00;;
56136;SDS011;42008;52.934;5.884;2024-01-25T03:09:12;71.50;;;11.33;;
56136;SDS011;42008;52.934;5.884;2024-01-25T03:11:38;60.20;;;8.53;;
56136;SDS011;42008;52.934;5.884;2024-01-25T03:14:04;65.67;;;9.17;;
56136;SDS011;42008;52.934;5.884;2024-01-25T03:16:30;65.37;;;10.33;;
56136;SDS011;42008;52.934;5.884;2024-01-25T03:18:56;74.27;;;11.20;;
56136;SDS011;42008;52.934;5.884;2024-01-25T03:21:22;67.73;;;8.13;;
56136;SDS011;42008;52.934;5.884;2024-01-25T03:23:48;66.10;;;10.60;;
56136;SDS011;42008;52.934;5.884;2024-01-25T03:26:14;59.60;;;10.10;;
56136;SDS011;42008;52.934;5.884;2024-01-25T03:28:40;68.00;;;9.00;;
56136;SDS011;42008;52.934;5.884;2024-01-25T03:31:06;61.77;;;8.77;;
56136;SDS011;42008;52.934;5.884;2024-01-25T03:33:32;68.83;;;10.00;;
56136;SDS011;42008;52.934;5.884;2024-01-25T03:36:05;64.73;;;10.47;;
56136;SDS011;42008;52.934;5.884;2024-01-25T03:38:31;64.10;;;8.70;;
56136;SDS011;42008;52.934;5.884;2024-01-25T03:40:57;71.47;;;9.87;;
56136;SDS011;42008;52.934;5.884;2024-01-25T03:43:27;58.03;;;7.50;;
56136;SDS011;42008;52.934;5.884;2024-01-25T03:45:53;61.47;;;8.27;;
56136;SDS011;42008;52.934;5.884;2024-01-25T03:48:19;67.63;;;8.97;;
56136;SDS011;42008;52.934;5.884;2024-01-25T03:50:47;80.47;;;9.60;;
56136;SDS011;42008;52.934;5.884;2024-01-25T03:53:13;65.77;;;8.63;;
56136;SDS011;42008;52.934;5.884;2024-01-25T03:55:40;74.00;;;9.57;;
56136;SDS011;42008;52.934;5.884;2024-01-25T03:58:06;71.27;;;11.00;;
56136;SDS011;42008;52.934;5.884;2024-01-25T04:00:33;62.40;;;8.83;;
56136;SDS011;42008;52.934;5.884;2024-01-25T04:03:00;61.70;;;7.73;;
56136;SDS011;42008;52.934;5.884;2024-01-25T04:05:26;65.90;;;8.27;;
56136;SDS011;42008;52.934;5.884;2024-01-25T04:07:52;55.47;;;9.23;;
56136;SDS011;42008;52.934;5.884;2024-01-25T04:10:18;67.10;;;10.27;;
56136;SDS011;42008;52.934;5.884;2024-01-25T04:12:44;60.50;;;8.43;;
56136;SDS011;42008;52.934;5.884;2024-01-25T04:15:10;69.20;;;8.83;;
56136;SDS011;42008;52.934;5.884;2024-01-25T04:17:36;69.27;;;9.73;;
56136;SDS011;42008;52.934;5.884;2024-01-25T04:20:02;63.70;;;8.70;;
56136;SDS011;42008;52.934;5.884;2024-01-25T04:22:28;70.27;;;9.60;;
56136;SDS011;42008;52.934;5.884;2024-01-25T04:24:54;66.77;;;9.40;;
56136;SDS011;42008;52.934;5.884;2024-01-25T04:27:20;64.83;;;8.73;;
56136;SDS011;42008;52.934;5.884;2024-01-25T04:29:46;74.33;;;9.43;;
56136;SDS011;42008;52.934;5.884;2024-01-25T04:32:13;87.33;;;11.17;;
56136;SDS011;42008;52.934;5.884;2024-01-25T04:34:39;71.13;;;8.40;;
56136;SDS011;42008;52.934;5.884;2024-01-25T04:37:05;64.60;;;8.67;;
56136;SDS011;42008;52.934;5.884;2024-01-25T04:39:31;82.93;;;9.50;;
56136;SDS011;42008;52.934;5.884;2024-01-25T04:41:57;65.20;;;9.50;;
56136;SDS011;42008;52.934;5.884;2024-01-25T04:44:23;71.20;;;9.37;;
56136;SDS011;42008;52.934;5.884;2024-01-25T04:46:49;72.47;;;9.17;;
56136;SDS011;42008;52.934;5.884;2024-01-25T04:49:17;66.10;;;9.57;;
56136;SDS011;42008;52.934;5.884;2024-01-25T04:51:43;83.17;;;10.37;;
56136;SDS011;42008;52.934;5.884;2024-01-25T04:54:09;72.23;;;10.50;;
56136;SDS011;42008;52.934;5.884;2024-01-25T04:56:37;79.63;;;7.93;;
56136;SDS011;42008;52.934;5.884;2024-01-25T04:59:03;81.50;;;10.60;;
56136;SDS011;42008;52.934;5.884;2024-01-25T05:01:29;70.80;;;9.13;;
56136;SDS011;42008;52.934;5.884;2024-01-25T05:03:55;73.33;;;10.70;;
56136;SDS011;42008;52.934;5.884;2024-01-25T05:06:21;77.97;;;11.33;;
56136;SDS011;42008;52.934;5.884;2024-01-25T05:08:47;75.60;;;8.53;;
56136;SDS011;42008;52.934;5.884;2024-01-25T05:11:13;85.33;;;10.33;;
56136;SDS011;42008;52.934;5.884;2024-01-25T05:13:39;77.57;;;10.80;;
56136;SDS011;42008;52.934;5.884;2024-01-25T05:16:06;77.50;;;10.20;;
56136;SDS011;42008;52.934;5.884;2024-01-25T05:18:32;66.67;;;8.67;;
56136;SDS011;42008;52.934;5.884;2024-01-25T05:20:58;63.77;;;8.33;;
56136;SDS011;42008;52.934;5.884;2024-01-25T05:23:24;68.53;;;9.90;;
56136;SDS011;42008;52.934;5.884;2024-01-25T05:25:50;79.37;;;11.03;;
56136;SDS011;42008;52.934;5.884;2024-01-25T05:28:16;94.23;;;9.33;;
56136;SDS011;42008;52.934;5.884;2024-01-25T05:30:42;80.40;;;8.87;;
56136;SDS011;42008;52.934;5.884;2024-01-25T05:33:07;82.17;;;9.47;;
56136;SDS011;42008;52.934;5.884;2024-01-25T05:35:33;81.80;;;9.83;;
56136;SDS011;42008;52.934;5.884;2024-01-25T05:38:00;76.10;;;9.73;;
56136;SDS011;42008;52.934;5.884;2024-01-25T05:40:26;78.97;;;8.43;;
56136;SDS011;42008;52.934;5.884;2024-01-25T05:42:52;87.33;;;10.07;;
56136;SDS011;42008;52.934;5.884;2024-01-25T05:45:18;73.13;;;9.20;;
56136;SDS011;42008;52.934;5.884;2024-01-25T05:47:46;77.57;;;9.10;;
56136;SDS011;42008;52.934;5.884;2024-01-25T05:50:12;71.20;;;9.60;;
56136;SDS011;42008;52.934;5.884;2024-01-25T05:52:38;78.67;;;9.57;;
56136;SDS011;42008;52.934;5.884;2024-01-25T05:55:04;67.47;;;8.70;;
56136;SDS011;42008;52.934;5.884;2024-01-25T05:57:31;66.83;;;9.73;;
56136;SDS011;42008;52.934;5.884;2024-01-25T05:59:57;78.00;;;8.77;;
56136;SDS011;42008;52.934;5.884;2024-01-25T06:02:23;75.33;;;8.97;;
56136;SDS011;42008;52.934;5.884;2024-01-25T06:04:49;87.93;;;9.43;;
56136;SDS011;42008;52.934;5.884;2024-01-25T06:07:15;94.37;;;10.50;;
56136;SDS011;42008;52.934;5.884;2024-01-25T06:09:41;79.03;;;9.37;;
56136;SDS011;42008;52.934;5.884;2024-01-25T06:12:07;66.37;;;9.03;;
56136;SDS011;42008;52.934;5.884;2024-01-25T06:14:33;73.30;;;9.70;;
56136;SDS011;42008;52.934;5.884;2024-01-25T06:16:59;90.03;;;9.13;;
56136;SDS011;42008;52.934;5.884;2024-01-25T06:19:25;88.90;;;8.57;;
56136;SDS011;42008;52.934;5.884;2024-01-25T06:21:51;98.33;;;11.17;;
56136;SDS011;42008;52.934;5.884;2024-01-25T06:24:17;93.97;;;11.23;;
56136;SDS011;42008;52.934;5.884;2024-01-25T06:26:43;80.03;;;10.53;;
56136;SDS011;42008;52.934;5.884;2024-01-25T06:29:09;94.00;;;11.97;;
56136;SDS011;42008;52.934;5.884;2024-01-25T06:31:42;66.07;;;8.07;;
56136;SDS011;42008;52.934;5.884;2024-01-25T06:34:08;92.80;;;11.00;;
56136;SDS011;42008;52.934;5.884;2024-01-25T06:36:34;92.87;;;9.43;;
56136;SDS011;42008;52.934;5.884;2024-01-25T06:39:00;90.27;;;11.50;;
56136;SDS011;42008;52.934;5.884;2024-01-25T06:41:26;102.87;;;10.43;;
56136;SDS011;42008;52.934;5.884;2024-01-25T06:43:52;80.83;;;10.67;;
56136;SDS011;42008;52.934;5.884;2024-01-25T06:46:19;81.93;;;10.67;;
56136;SDS011;42008;52.934;5.884;2024-01-25T06:48:45;90.23;;;11.87;;
56136;SDS011;42008;52.934;5.884;2024-01-25T06:51:11;94.47;;;10.60;;
56136;SDS011;42008;52.934;5.884;2024-01-25T06:53:38;93.33;;;12.10;;
56136;SDS011;42008;52.934;5.884;2024-01-25T06:56:05;98.63;;;11.53;;
56136;SDS011;42008;52.934;5.884;2024-01-25T06:58:31;78.77;;;9.63;;
56136;SDS011;42008;52.934;5.884;2024-01-25T07:00:57;76.53;;;10.77;;
56136;SDS011;42008;52.934;5.884;2024-01-25T07:03:23;83.90;;;10.47;;
56136;SDS011;42008;52.934;5.884;2024-01-25T07:05:49;83.87;;;9.20;;
56136;SDS011;42008;52.934;5.884;2024-01-25T07:08:15;90.53;;;10.10;;
56136;SDS011;42008;52.934;5.884;2024-01-25T07:10:42;71.90;;;8.70;;
56136;SDS011;42008;52.934;5.884;2024-01-25T07:13:08;75.83;;;9.97;;
56136;SDS011;42008;52.934;5.884;2024-01-25T07:15:34;84.80;;;8.43;;
56136;SDS011;42008;52.934;5.884;2024-01-25T07:18:00;88.87;;;8.57;;
56136;SDS011;42008;52.934;5.884;2024-01-25T07:20:26;86.23;;;10.20;;
56136;SDS011;42008;52.934;5.884;2024-01-25T07:22:52;81.17;;;8.27;;
56136;SDS011;42008;52.934;5.884;2024-01-25T07:25:18;82.77;;;9.60;;
56136;SDS011;42008;52.934;5.884;2024-01-25T07:27:44;88.70;;;9.67;;
56136;SDS011;42008;52.934;5.884;2024-01-25T07:30:11;76.33;;;11.03;;
56136;SDS011;42008;52.934;5.884;2024-01-25T07:32:40;90.87;;;10.07;;
56136;SDS011;42008;52.934;5.884;2024-01-25T07:35:10;81.57;;;9.40;;
56136;SDS011;42008;52.934;5.884;2024-01-25T07:37:37;90.10;;;11.00;;
56136;SDS011;42008;52.934;5.884;2024-01-25T07:40:03;90.13;;;8.90;;
56136;SDS011;42008;52.934;5.884;2024-01-25T07:42:29;76.77;;;9.37;;
56136;SDS011;42008;52.934;5.884;2024-01-25T07:44:55;73.77;;;8.60;;
56136;SDS011;42008;52.934;5.884;2024-01-25T07:47:21;88.90;;;9.27;;
56136;SDS011;42008;52.934;5.884;2024-01-25T07:49:47;94.27;;;10.23;;
56136;SDS011;42008;52.934;5.884;2024-01-25T07:52:14;76.17;;;9.83;;
56136;SDS011;42008;52.934;5.884;2024-01-25T07:54:40;81.13;;;10.80;;
56136;SDS011;42008;52.934;5.884;2024-01-25T07:57:06;91.70;;;8.57;;
56136;SDS011;42008;52.934;5.884;2024-01-25T07:59:32;98.33;;;10.07;;
56136;SDS011;42008;52.934;5.884;2024-01-25T08:01:58;83.57;;;10.00;;
56136;SDS011;42008;52.934;5.884;2024-01-25T08:04:24;97.00;;;11.73;;
56136;SDS011;42008;52.934;5.884;2024-01-25T08:06:51;84.53;;;10.00;;
56136;SDS011;42008;52.934;5.884;2024-01-25T08:09:17;87.30;;;11.37;;
56136;SDS011;42008;52.934;5.884;2024-01-25T08:11:44;93.13;;;10.03;;
56136;SDS011;42008;52.934;5.884;2024-01-25T08:14:10;78.73;;;9.23;;
56136;SDS011;42008;52.934;5.884;2024-01-25T08:16:37;77.53;;;9.73;;
56136;SDS011;42008;52.934;5.884;2024-01-25T08:19:03;87.77;;;8.83;;
56136;SDS011;42008;52.934;5.884;2024-01-25T08:21:30;87.40;;;10.07;;
56136;SDS011;42008;52.934;5.884;2024-01-25T08:23:56;83.87;;;9.90;;
56136;SDS011;42008;52.934;5.884;2024-01-25T08:26:22;86.60;;;9.20;;
56136;SDS011;42008;52.934;5.884;2024-01-25T08:28:48;91.43;;;10.20;;
56136;SDS011;42008;52.934;5.884;2024-01-25T08:31:14;75.23;;;8.27;;
56136;SDS011;42008;52.934;5.884;2024-01-25T08:33:40;78.57;;;9.50;;
56136;SDS011;42008;52.934;5.884;2024-01-25T08:36:08;87.80;;;8.80;;
56136;SDS011;42008;52.934;5.884;2024-01-25T08:38:34;80.63;;;8.87;;
56136;SDS011;42008;52.934;5.884;2024-01-25T08:41:01;93.33;;;10.37;;
56136;SDS011;42008;52.934;5.884;2024-01-25T08:43:27;66.50;;;9.60;;
56136;SDS011;42008;52.934;5.884;2024-01-25T08:45:53;66.77;;;9.30;;
56136;SDS011;42008;52.934;5.884;2024-01-25T08:48:19;91.60;;;10.03;;
56136;SDS011;42008;52.934;5.884;2024-01-25T08:50:45;85.40;;;9.27;;
56136;SDS011;42008;52.934;5.884;2024-01-25T08:53:11;84.87;;;10.47;;
56136;SDS011;42008;52.934;5.884;2024-01-25T08:55:37;93.60;;;11.27;;
56136;SDS011;42008;52.934;5.884;2024-01-25T08:58:03;84.67;;;10.00;;
56136;SDS011;42008;52.934;5.884;2024-01-25T09:00:29;71.30;;;9.03;;
56136;SDS011;42008;52.934;5.884;2024-01-25T09:02:55;69.97;;;10.00;;
56136;SDS011;42008;52.934;5.884;2024-01-25T09:05:22;73.20;;;8.43;;
56136;SDS011;42008;52.934;5.884;2024-01-25T09:07:48;93.00;;;11.50;;
56136;SDS011;42008;52.934;5.884;2024-01-25T09:10:15;79.87;;;9.40;;
56136;SDS011;42008;52.934;5.884;2024-01-25T09:12:41;87.90;;;11.40;;
56136;SDS011;42008;52.934;5.884;2024-01-25T09:15:07;81.33;;;9.33;;
56136;SDS011;42008;52.934;5.884;2024-01-25T09:17:34;85.73;;;10.27;;
56136;SDS011;42008;52.934;5.884;2024-01-25T09:20:00;93.37;;;10.67;;
56136;SDS011;42008;52.934;5.884;2024-01-25T09:22:26;64.73;;;9.83;;
56136;SDS011;42008;52.934;5.884;2024-01-25T09:24:52;92.60;;;12.03;;
56136;SDS011;42008;52.934;5.884;2024-01-25T09:27:18;69.67;;;9.20;;
56136;SDS011;42008;52.934;5.884;2024-01-25T09:29:44;79.33;;;10.60;;
56136;SDS011;42008;52.934;5.884;2024-01-25T09:32:10;85.93;;;11.57;;
56136;SDS011;42008;52.934;5.884;2024-01-25T09:34:36;90.03;;;11.27;;
56136;SDS011;42008;52.934;5.884;2024-01-25T09:37:03;78.83;;;11.80;;
56136;SDS011;42008;52.934;5.884;2024-01-25T09:39:29;69.10;;;10.37;;
56136;SDS011;42008;52.934;5.884;2024-01-25T09:41:55;70.50;;;9.93;;
56136;SDS011;42008;52.934;5.884;2024-01-25T09:44:21;77.33;;;11.47;;
56136;SDS011;42008;52.934;5.884;2024-01-25T09:46:47;81.67;;;11.53;;
56136;SDS011;42008;52.934;5.884;2024-01-25T09:49:14;80.33;;;11.93;;
56136;SDS011;42008;52.934;5.884;2024-01-25T09:51:40;87.93;;;11.97;;
56136;SDS011;42008;52.934;5.884;2024-01-25T09:54:07;67.67;;;10.93;;
56136;SDS011;42008;52.934;5.884;2024-01-25T09:56:33;84.47;;;12.83;;
56136;SDS011;42008;52.934;5.884;2024-01-25T09:58:59;73.70;;;10.80;;
56136;SDS011;42008;52.934;5.884;2024-01-25T10:01:26;76.27;;;11.57;;
56136;SDS011;42008;52.934;5.884;2024-01-25T10:03:52;65.43;;;9.47;;
56136;SDS011;42008;52.934;5.884;2024-01-25T10:06:21;68.87;;;10.83;;
56136;SDS011;42008;52.934;5.884;2024-01-25T10:08:47;65.13;;;10.70;;
56136;SDS011;42008;52.934;5.884;2024-01-25T10:11:13;72.90;;;11.80;;
56136;SDS011;42008;52.934;5.884;2024-01-25T10:13:46;72.27;;;11.10;;
56136;SDS011;42008;52.934;5.884;2024-01-25T10:16:19;82.33;;;11.27;;
56136;SDS011;42008;52.934;5.884;2024-01-25T10:21:11;67.23;;;9.67;;
56136;SDS011;42008;52.934;5.884;2024-01-25T10:23:38;68.33;;;10.70;;
56136;SDS011;42008;52.934;5.884;2024-01-25T10:26:04;60.47;;;9.37;;
56136;SDS011;42008;52.934;5.884;2024-01-25T10:28:30;56.47;;;9.80;;
56136;SDS011;42008;52.934;5.884;2024-01-25T10:30:59;54.33;;;9.47;;
56136;SDS011;42008;52.934;5.884;2024-01-25T10:33:26;60.80;;;9.80;;
56136;SDS011;42008;52.934;5.884;2024-01-25T10:35:54;62.50;;;9.67;;
56136;SDS011;42008;52.934;5.884;2024-01-25T10:38:23;59.93;;;10.57;;
56136;SDS011;42008;52.934;5.884;2024-01-25T10:40:51;62.93;;;9.23;;
56136;SDS011;42008;52.934;5.884;2024-01-25T10:43:18;61.90;;;10.00;;
56136;SDS011;42008;52.934;5.884;2024-01-25T10:45:44;63.80;;;10.43;;
56136;SDS011;42008;52.934;5.884;2024-01-25T10:48:11;62.43;;;9.30;;
56136;SDS011;42008;52.934;5.884;2024-01-25T10:50:38;59.70;;;9.43;;
56136;SDS011;42008;52.934;5.884;2024-01-25T10:53:04;58.00;;;9.63;;
56136;SDS011;42008;52.934;5.884;2024-01-25T10:55:31;59.27;;;9.33;;
56136;SDS011;42008;52.934;5.884;2024-01-25T10:57:57;61.63;;;10.90;;
56136;SDS011;42008;52.934;5.884;2024-01-25T11:00:24;59.67;;;9.40;;
56136;SDS011;42008;52.934;5.884;2024-01-25T11:02:50;53.33;;;10.57;;
56136;SDS011;42008;52.934;5.884;2024-01-25T11:05:16;60.93;;;11.00;;
56136;SDS011;42008;52.934;5.884;2024-01-25T11:07:44;50.53;;;9.83;;
56136;SDS011;42008;52.934;5.884;2024-01-25T11:10:17;48.20;;;9.83;;
56136;SDS011;42008;52.934;5.884;2024-01-25T11:12:57;47.97;;;8.87;;
56136;SDS011;42008;52.934;5.884;2024-01-25T11:15:31;56.53;;;9.70;;
56136;SDS011;42008;52.934;5.884;2024-01-25T11:17:57;62.47;;;10.93;;
56136;SDS011;42008;52.934;5.884;2024-01-25T11:20:24;50.13;;;9.80;;
56136;SDS011;42008;52.934;5.884;2024-01-25T11:22:57;60.23;;;9.50;;
56136;SDS011;42008;52.934;5.884;2024-01-25T11:25:26;54.57;;;10.63;;
56136;SDS011;42008;52.934;5.884;2024-01-25T11:27:53;56.27;;;10.07;;
56136;SDS011;42008;52.934;5.884;2024-01-25T11:30:20;48.10;;;9.77;;
56136;SDS011;42008;52.934;5.884;2024-01-25T11:32:46;52.80;;;9.87;;
56136;SDS011;42008;52.934;5.884;2024-01-25T11:35:13;55.43;;;8.60;;
56136;SDS011;42008;52.934;5.884;2024-01-25T11:37:48;53.03;;;10.27;;
56136;SDS011;42008;52.934;5.884;2024-01-25T11:40:15;53.63;;;9.23;;
56136;SDS011;42008;52.934;5.884;2024-01-25T11:42:42;56.73;;;9.83;;
56136;SDS011;42008;52.934;5.884;2024-01-25T11:45:08;50.83;;;9.93;;
56136;SDS011;42008;52.934;5.884;2024-01-25T11:47:36;58.20;;;9.67;;
56136;SDS011;42008;52.934;5.884;2024-01-25T11:50:02;53.73;;;10.50;;
56136;SDS011;42008;52.934;5.884;2024-01-25T11:52:28;58.10;;;9.60;;
56136;SDS011;42008;52.934;5.884;2024-01-25T11:54:57;63.47;;;11.30;;
56136;SDS011;42008;52.934;5.884;2024-01-25T11:57:23;62.30;;;9.57;;
56136;SDS011;42008;52.934;5.884;2024-01-25T11:59:50;48.50;;;9.50;;
56136;SDS011;42008;52.934;5.884;2024-01-25T12:02:16;66.70;;;10.77;;
56136;SDS011;42008;52.934;5.884;2024-01-25T12:04:42;53.53;;;9.47;;
56136;SDS011;42008;52.934;5.884;2024-01-25T12:07:08;53.77;;;9.83;;
56136;SDS011;42008;52.934;5.884;2024-01-25T12:09:34;53.37;;;10.60;;
56136;SDS011;42008;52.934;5.884;2024-01-25T12:12:00;59.73;;;10.27;;
56136;SDS011;42008;52.934;5.884;2024-01-25T12:14:27;55.60;;;9.40;;
56136;SDS011;42008;52.934;5.884;2024-01-25T12:16:56;49.27;;;10.20;;
56136;SDS011;42008;52.934;5.884;2024-01-25T12:19:22;48.90;;;10.20;;
56136;SDS011;42008;52.934;5.884;2024-01-25T12:21:48;57.93;;;10.47;;
56136;SDS011;42008;52.934;5.884;2024-01-25T12:24:15;46.43;;;9.63;;
56136;SDS011;42008;52.934;5.884;2024-01-25T12:26:41;52.10;;;10.03;;
56136;SDS011;42008;52.934;5.884;2024-01-25T12:29:07;53.67;;;9.37;;
56136;SDS011;42008;52.934;5.884;2024-01-25T12:31:35;52.10;;;9.10;;
56136;SDS011;42008;52.934;5.884;2024-01-25T12:34:01;48.80;;;8.80;;
56136;SDS011;42008;52.934;5.884;2024-01-25T12:36:27;48.83;;;10.30;;
56136;SDS011;42008;52.934;5.884;2024-01-25T12:38:54;58.37;;;8.93;;
56136;SDS011;42008;52.934;5.884;2024-01-25T12:41:20;46.00;;;8.90;;
56136;SDS011;42008;52.934;5.884;2024-01-25T12:43:46;53.30;;;10.10;;
56136;SDS011;42008;52.934;5.884;2024-01-25T12:46:12;46.13;;;9.27;;
56136;SDS011;42008;52.934;5.884;2024-01-25T12:48:38;48.50;;;9.03;;
56136;SDS011;42008;52.934;5.884;2024-01-25T12:51:04;44.57;;;8.80;;
56136;SDS011;42008;52.934;5.884;2024-01-25T12:53:30;46.93;;;10.13;;
56136;SDS011;42008;52.934;5.884;2024-01-25T12:55:56;58.63;;;11.23;;
56136;SDS011;42008;52.934;5.884;2024-01-25T12:58:22;44.37;;;9.27;;
56136;SDS011;42008;52.934;5.884;2024-01-25T13:00:48;45.87;;;7.87;;
56136;SDS011;42008;52.934;5.884;2024-01-25T13:03:14;46.27;;;9.07;;
56136;SDS011;42008;52.934;5.884;2024-01-25T13:05:40;40.77;;;7.87;;
56136;SDS011;42008;52.934;5.884;2024-01-25T13:08:06;44.23;;;8.57;;
56136;SDS011;42008;52.934;5.884;2024-01-25T13:10:32;47.47;;;10.37;;
56136;SDS011;42008;52.934;5.884;2024-01-25T13:12:58;44.23;;;8.43;;
56136;SDS011;42008;52.934;5.884;2024-01-25T13:15:24;46.60;;;9.27;;
56136;SDS011;42008;52.934;5.884;2024-01-25T13:17:51;44.40;;;8.53;;
56136;SDS011;42008;52.934;5.884;2024-01-25T13:20:17;54.87;;;9.87;;
56136;SDS011;42008;52.934;5.884;2024-01-25T13:22:43;57.27;;;9.10;;
56136;SDS011;42008;52.934;5.884;2024-01-25T13:25:09;46.00;;;8.83;;
56136;SDS011;42008;52.934;5.884;2024-01-25T13:27:37;46.10;;;9.07;;
56136;SDS011;42008;52.934;5.884;2024-01-25T13:30:03;47.63;;;8.87;;
56136;SDS011;42008;52.934;5.884;2024-01-25T13:32:30;45.27;;;9.07;;
56136;SDS011;42008;52.934;5.884;2024-01-25T13:34:56;45.30;;;9.43;;
56136;SDS011;42008;52.934;5.884;2024-01-25T13:37:22;47.83;;;8.53;;
56136;SDS011;42008;52.934;5.884;2024-01-25T13:39:48;48.17;;;8.37;;
56136;SDS011;42008;52.934;5.884;2024-01-25T13:42:14;50.00;;;9.10;;
56136;SDS011;42008;52.934;5.884;2024-01-25T13:44:40;48.63;;;9.17;;
56136;SDS011;42008;52.934;5.884;2024-01-25T13:47:06;36.80;;;7.90;;
56136;SDS011;42008;52.934;5.884;2024-01-25T13:49:32;49.87;;;8.43;;
56136;SDS011;42008;52.934;5.884;2024-01-25T13:52:00;46.87;;;7.90;;
56136;SDS011;42008;52.934;5.884;2024-01-25T13:54:29;48.00;;;7.93;;
56136;SDS011;42008;52.934;5.884;2024-01-25T13:56:55;41.53;;;7.47;;
56136;SDS011;42008;52.934;5.884;2024-01-25T13:59:21;39.23;;;6.47;;
56136;SDS011;42008;52.934;5.884;2024-01-25T14:01:50;47.97;;;7.40;;
56136;SDS011;42008;52.934;5.884;2024-01-25T14:04:16;43.60;;;8.40;;
56136;SDS011;42008;52.934;5.884;2024-01-25T14:06:42;44.23;;;8.40;;
56136;SDS011;42008;52.934;5.884;2024-01-25T14:09:08;41.93;;;7.40;;
56136;SDS011;42008;52.934;5.884;2024-01-25T14:11:34;37.23;;;6.43;;
56136;SDS011;42008;52.934;5.884;2024-01-25T14:14:00;43.67;;;6.70;;
56136;SDS011;42008;52.934;5.884;2024-01-25T14:16:26;36.67;;;6.73;;
56136;SDS011;42008;52.934;5.884;2024-01-25T14:18:52;50.37;;;8.27;;
56136;SDS011;42008;52.934;5.884;2024-01-25T14:21:18;42.20;;;6.80;;
56136;SDS011;42008;52.934;5.884;2024-01-25T14:23:46;53.63;;;8.20;;
56136;SDS011;42008;52.934;5.884;2024-01-25T14:26:12;46.43;;;7.17;;
56136;SDS011;42008;52.934;5.884;2024-01-25T14:28:38;46.17;;;8.47;;